createdAt,value
2023-01-10T05:33:44.913Z,98787.61
2023-01-10T05:35:48.233Z,98805.86
2023-01-10T05:37:51.040Z,98802.09
2023-01-10T05:39:53.720Z,98801.41
2023-01-10T05:41:56.450Z,98804.75
2023-01-10T05:43:59.157Z,98792.86
2023-01-10T05:46:01.852Z,98802.86
2023-01-10T05:48:05.130Z,98798.66
2023-01-10T05:50:10.691Z,98808.27
2023-01-10T05:52:14.181Z,98804.48
2023-01-10T05:54:18.068Z,98812.23
2023-01-10T05:56:20.789Z,98817.66
2023-01-10T05:58:24.250Z,98821.30
2023-01-10T06:00:27.470Z,98820.68
2023-01-10T06:02:33.226Z,98823.30
2023-01-10T06:04:36.039Z,98828.33
2023-01-10T06:06:38.828Z,98833.60
2023-01-10T06:08:41.724Z,98835.30
2023-01-10T06:10:44.498Z,98843.92
2023-01-10T06:12:47.225Z,98846.98
2023-01-10T06:14:49.871Z,98857.52
2023-01-10T06:16:52.571Z,98868.03
2023-01-10T06:18:55.319Z,98861.89
2023-01-10T06:20:57.971Z,98849.55
2023-01-10T06:23:00.921Z,98864.23
2023-01-10T06:25:04.256Z,98867.67
2023-01-10T06:27:06.977Z,98871.02
2023-01-10T06:29:10.004Z,98872.86
2023-01-10T06:31:12.801Z,98884.90
2023-01-10T06:33:15.432Z,98897.80
2023-01-10T06:35:18.177Z,98888.96
2023-01-10T06:37:20.968Z,98884.27
2023-01-10T06:39:23.659Z,98891.84
2023-01-10T06:41:26.479Z,98896.42
2023-01-10T06:43:29.224Z,98914.49
2023-01-10T06:45:32.341Z,98911.59
2023-01-10T06:47:35.136Z,98921.96
2023-01-10T06:49:37.771Z,98921.53
2023-01-10T06:51:40.530Z,98928.29
2023-01-10T06:53:43.339Z,98926.70
2023-01-10T06:55:46.042Z,98939.75
2023-01-10T06:57:48.727Z,98932.66
2023-01-10T06:59:51.329Z,98941.19
2023-01-10T07:01:54.068Z,98944.08
2023-01-10T07:04:03.148Z,98952.91
2023-01-10T07:06:07.839Z,98957.53
2023-01-10T07:08:10.611Z,98952.12
2023-01-10T07:10:13.404Z,98959.38
2023-01-10T07:12:16.050Z,98968.58
2023-01-10T07:14:19.437Z,98979.55
2023-01-10T07:16:22.243Z,98972.89
2023-01-10T07:18:25.016Z,98966.58
2023-01-10T07:20:28.005Z,98983.63
2023-01-10T07:22:31.060Z,98984.82
2023-01-10T07:24:33.725Z,98987.77
2023-01-10T07:26:36.505Z,98984.03
2023-01-10T07:28:42.520Z,98991.16
2023-01-10T07:30:45.608Z,98993.30
2023-01-10T07:32:54.235Z,98987.62
2023-01-10T07:34:56.948Z,99002.71
2023-01-10T07:37:00.764Z,98998.14
2023-01-10T07:39:03.615Z,99004.54
2023-01-10T07:41:06.616Z,98999.10
2023-01-10T07:43:09.801Z,99004.08
2023-01-10T07:45:12.533Z,99009.64
2023-01-10T07:47:15.243Z,99011.05
2023-01-10T07:49:17.866Z,99011.55
2023-01-10T07:51:20.596Z,99011.17
2023-01-10T07:53:23.824Z,99017.30
2023-01-10T07:55:27.293Z,99024.69
2023-01-10T07:57:29.924Z,99031.23
2023-01-10T07:59:35.553Z,99026.82
2023-01-10T08:01:38.396Z,99050.03
2023-01-10T08:03:41.270Z,99057.75
2023-01-10T08:05:44.307Z,99057.60
2023-01-10T08:07:47.031Z,99056.21
2023-01-10T08:09:49.742Z,99058.86
2023-01-10T08:11:52.451Z,99063.56
2023-01-10T08:13:55.223Z,99071.75
2023-01-10T08:15:58.405Z,99070.99
2023-01-10T08:18:04.092Z,99095.80
2023-01-10T08:20:10.802Z,99088.61
2023-01-10T08:22:13.623Z,99102.30
2023-01-10T08:24:16.325Z,99112.52
2023-01-10T08:26:19.050Z,99105.82
2023-01-10T08:28:23.111Z,99102.14
2023-01-10T08:30:25.884Z,99101.97
2023-01-10T08:32:28.659Z,99111.52
2023-01-10T08:34:31.502Z,99109.64
2023-01-10T08:36:34.192Z,99122.20
2023-01-10T08:38:37.230Z,99124.67
2023-01-10T08:40:40.006Z,99130.68
2023-01-10T08:42:42.746Z,99135.58
2023-01-10T08:44:45.713Z,99138.20
2023-01-10T08:46:48.567Z,99163.51
2023-01-10T08:48:51.256Z,99145.98
2023-01-10T08:50:54.086Z,99145.60
2023-01-10T08:52:58.323Z,99147.84
2023-01-10T08:55:01.033Z,99155.63
2023-01-10T08:57:04.973Z,99161.85
2023-01-10T08:59:08.163Z,99160.02
2023-01-10T09:01:11.666Z,99159.39
2023-01-10T09:03:14.396Z,99170.30
2023-01-10T09:05:26.643Z,99174.81
2023-01-10T09:07:30.025Z,99177.88
2023-01-10T09:09:32.853Z,99166.98
2023-01-10T09:11:36.026Z,99178.71
2023-01-10T09:13:38.702Z,99187.73
2023-01-10T09:15:42.713Z,99189.25
2023-01-10T09:17:45.860Z,99188.19
2023-01-10T09:19:48.615Z,99192.87
2023-01-10T09:21:51.340Z,99199.05
2023-01-10T09:23:54.215Z,99203.86
2023-01-10T09:25:56.903Z,99213.02
2023-01-10T09:28:01.020Z,99197.67
2023-01-10T09:30:05.002Z,99206.08
2023-01-10T09:32:07.895Z,99208.25
2023-01-10T09:34:10.661Z,99228.67
2023-01-10T09:36:13.322Z,99225.48
2023-01-10T09:38:17.735Z,99229.66
2023-01-10T09:40:30.861Z,99238.11
2023-01-10T09:42:50.251Z,99226.49
2023-01-10T09:45:01.615Z,99234.16
2023-01-10T09:47:21.977Z,99241.82
2023-01-10T09:49:39.513Z,99231.63
2023-01-10T09:51:45.357Z,99224.42
2023-01-10T09:53:48.913Z,99238.14
2023-01-10T09:55:54.774Z,99241.59
2023-01-10T09:58:00.172Z,99250.69
2023-01-10T10:00:06.490Z,99238.34
2023-01-10T10:02:25.077Z,99243.35
2023-01-10T10:04:33.199Z,99256.52
2023-01-10T10:06:35.959Z,99231.34
2023-01-10T10:08:39.544Z,99245.80
2023-01-10T10:10:58.439Z,99229.11
2023-01-10T10:13:26.448Z,99247.97
2023-01-10T10:15:35.124Z,99249.86
2023-01-10T10:17:44.821Z,99251.93
2023-01-10T10:20:02.059Z,99260.48
2023-01-10T10:22:12.586Z,99261.80
2023-01-10T10:24:37.804Z,99247.34
2023-01-10T10:26:50.133Z,99243.83
